Terminal Aerodrome Forecast
Issued by NWS Jackson, MS

Home | Current Version | Previous Version | Text Only | Print | Product List | Glossary On
Versions: 1 2 3 4 5 6 7 8 9 10 11 12 13 14 15 16 17 18 19 20 21 22 23 24
087
FTUS44 KJAN 181136
TAFHBG
TAF
KHBG 181136Z 1812/1912 15006KT 6SM -RA OVC015
     FM181500 17006KT P6SM -SHRA OVC009
     FM182100 23005KT P6SM VCSH OVC080
     FM190600 35009KT P6SM BKN022=

USA.gov is the U.S. government's official web portal to all federal, state and local government web resources and services.